sensor_id;sensor_type;location;lat;lon;timestamp;pressure;altitude;pressure_sealevel;temperature;humidity
7180;BME280;3631;42.152;24.756;2023-11-21T00:00:07;86056.50;;;-144.30;66.35
7180;BME280;3631;42.152;24.756;2023-11-21T00:02:38;86032.63;;;-144.30;66.84
7180;BME280;3631;42.152;24.756;2023-11-21T00:05:06;86048.53;;;-144.30;66.85
7180;BME280;3631;42.152;24.756;2023-11-21T00:07:35;86030.66;;;-144.30;66.70
7180;BME280;3631;42.152;24.756;2023-11-21T00:10:02;86062.47;;;-144.30;66.97
7180;BME280;3631;42.152;24.756;2023-11-21T00:12:30;86066.44;;;-144.30;66.71
7180;BME280;3631;42.152;24.756;2023-11-21T00:14:57;85782.13;;;-144.30;66.43
7180;BME280;3631;42.152;24.756;2023-11-21T00:17:24;86072.41;;;-144.30;66.63
7180;BME280;3631;42.152;24.756;2023-11-21T00:19:51;86273.22;;;-144.30;66.27
7180;BME280;3631;42.152;24.756;2023-11-21T00:22:18;86068.41;;;-144.30;66.22
7180;BME280;3631;42.152;24.756;2023-11-21T00:24:47;86058.47;;;-144.30;66.12
7180;BME280;3631;42.152;24.756;2023-11-21T00:27:14;86048.53;;;-144.30;66.14
7180;BME280;3631;42.152;24.756;2023-11-21T00:29:41;86066.44;;;-144.30;66.38
7180;BME280;3631;42.152;24.756;2023-11-21T00:32:08;86030.66;;;-144.30;66.39
7180;BME280;3631;42.152;24.756;2023-11-21T00:34:35;86076.38;;;-144.30;66.39
7180;BME280;3631;42.152;24.756;2023-11-21T00:37:02;86088.31;;;-144.30;66.85
7180;BME280;3631;42.152;24.756;2023-11-21T00:39:29;86086.31;;;-144.30;66.86
7180;BME280;3631;42.152;24.756;2023-11-21T00:41:59;86080.34;;;-144.30;67.10
7180;BME280;3631;42.152;24.756;2023-11-21T00:44:26;86094.28;;;-144.30;67.22
7180;BME280;3631;42.152;24.756;2023-11-21T00:46:53;86084.34;;;-144.30;67.87
7180;BME280;3631;42.152;24.756;2023-11-21T00:49:21;85988.88;;;-144.30;67.96
7180;BME280;3631;42.152;24.756;2023-11-21T00:51:48;86060.47;;;-144.30;67.95
7180;BME280;3631;42.152;24.756;2023-11-21T00:54:15;86104.22;;;-144.30;67.89
7180;BME280;3631;42.152;24.756;2023-11-21T00:56:42;86044.56;;;-144.30;68.56
7180;BME280;3631;42.152;24.756;2023-11-21T00:59:11;86112.16;;;-144.30;69.33
7180;BME280;3631;42.152;24.756;2023-11-21T01:01:38;86136.03;;;-144.30;70.06
7180;BME280;3631;42.152;24.756;2023-11-21T01:04:05;86136.03;;;-144.30;70.70
7180;BME280;3631;42.152;24.756;2023-11-21T01:06:32;86151.94;;;-144.30;71.72
7180;BME280;3631;42.152;24.756;2023-11-21T01:08:59;86149.94;;;-144.30;71.54
7180;BME280;3631;42.152;24.756;2023-11-21T01:11:26;86114.16;;;-144.30;72.18
7180;BME280;3631;42.152;24.756;2023-11-21T01:13:53;86143.97;;;-144.30;72.92
7180;BME280;3631;42.152;24.756;2023-11-21T01:16:22;86173.81;;;-144.30;73.99
7180;BME280;3631;42.152;24.756;2023-11-21T01:18:50;86231.47;;;-144.30;75.00
7180;BME280;3631;42.152;24.756;2023-11-21T01:21:16;86175.78;;;-144.30;74.48
7180;BME280;3631;42.152;24.756;2023-11-21T01:23:44;86201.66;;;-144.30;73.92
7180;BME280;3631;42.152;24.756;2023-11-21T01:26:11;86177.78;;;-144.30;74.30
7180;BME280;3631;42.152;24.756;2023-11-21T01:28:37;86195.69;;;-144.30;73.82
7180;BME280;3631;42.152;24.756;2023-11-21T01:31:05;86167.84;;;-144.30;73.87
7180;BME280;3631;42.152;24.756;2023-11-21T01:33:34;86191.69;;;-144.30;74.55
7180;BME280;3631;42.152;24.756;2023-11-21T01:36:01;86084.34;;;-144.30;74.70
7180;BME280;3631;42.152;24.756;2023-11-21T01:38:28;86199.66;;;-144.30;74.61
7180;BME280;3631;42.152;24.756;2023-11-21T01:40:55;86177.78;;;-144.30;74.33
7180;BME280;3631;42.152;24.756;2023-11-21T01:43:21;86179.78;;;-144.30;74.68
7180;BME280;3631;42.152;24.756;2023-11-21T01:45:49;86183.75;;;-144.30;73.97
7180;BME280;3631;42.152;24.756;2023-11-21T01:48:16;86207.59;;;-144.30;74.30
7180;BME280;3631;42.152;24.756;2023-11-21T01:50:45;86197.66;;;-144.30;74.45
7180;BME280;3631;42.152;24.756;2023-11-21T01:53:12;86219.53;;;-144.30;74.87
7180;BME280;3631;42.152;24.756;2023-11-21T01:55:40;86201.66;;;-144.30;74.53
7180;BME280;3631;42.152;24.756;2023-11-21T01:58:09;86143.97;;;-144.30;75.01
7180;BME280;3631;42.152;24.756;2023-11-21T02:00:38;86255.34;;;-144.30;75.57
7180;BME280;3631;42.152;24.756;2023-11-21T02:03:05;86221.53;;;-144.30;75.16
7180;BME280;3631;42.152;24.756;2023-11-21T02:05:32;86223.50;;;-144.30;74.99
7180;BME280;3631;42.152;24.756;2023-11-21T02:08:00;86219.53;;;-144.30;75.08
7180;BME280;3631;42.152;24.756;2023-11-21T02:10:28;86203.63;;;-144.30;75.20
7180;BME280;3631;42.152;24.756;2023-11-21T02:12:56;86205.63;;;-144.30;75.86
7180;BME280;3631;42.152;24.756;2023-11-21T02:15:24;86231.47;;;-144.30;75.45
7180;BME280;3631;42.152;24.756;2023-11-21T02:17:54;86265.28;;;-144.30;75.55
7180;BME280;3631;42.152;24.756;2023-11-21T02:20:21;86132.06;;;-144.30;75.86
7180;BME280;3631;42.152;24.756;2023-11-21T02:22:52;86229.47;;;-144.30;75.81
7180;BME280;3631;42.152;24.756;2023-11-21T02:25:23;86221.53;;;-144.30;76.30
7180;BME280;3631;42.152;24.756;2023-11-21T02:27:51;86259.31;;;-144.30;77.02
7180;BME280;3631;42.152;24.756;2023-11-21T02:30:20;86233.47;;;-144.30;76.85
7180;BME280;3631;42.152;24.756;2023-11-21T02:32:47;86285.16;;;-144.30;77.49
7180;BME280;3631;42.152;24.756;2023-11-21T02:35:14;86283.16;;;-144.30;78.20
7180;BME280;3631;42.152;24.756;2023-11-21T02:37:41;86267.25;;;-144.30;79.03
7180;BME280;3631;42.152;24.756;2023-11-21T02:40:11;86338.84;;;-144.30;79.86
7180;BME280;3631;42.152;24.756;2023-11-21T02:42:39;86273.22;;;-144.30;79.69
7180;BME280;3631;42.152;24.756;2023-11-21T02:45:07;86579.47;;;-144.30;80.14
7180;BME280;3631;42.152;24.756;2023-11-21T02:47:34;86297.09;;;-144.30;80.07
7180;BME280;3631;42.152;24.756;2023-11-21T02:50:01;86281.19;;;-144.30;80.12
7180;BME280;3631;42.152;24.756;2023-11-21T02:52:29;86293.09;;;-144.30;80.03
7180;BME280;3631;42.152;24.756;2023-11-21T02:54:58;86307.03;;;-144.30;85.86
7180;BME280;3631;42.152;24.756;2023-11-21T02:57:27;86307.03;;;-144.30;82.02
7180;BME280;3631;42.152;24.756;2023-11-21T02:59:53;86340.84;;;-144.30;80.94
7180;BME280;3631;42.152;24.756;2023-11-21T03:02:21;86285.16;;;-144.30;79.52
7180;BME280;3631;42.152;24.756;2023-11-21T03:04:48;86493.94;;;-144.30;78.43
7180;BME280;3631;42.152;24.756;2023-11-21T03:07:15;86277.19;;;-144.30;79.32
7180;BME280;3631;42.152;24.756;2023-11-21T03:09:42;86295.09;;;-144.30;80.22
7180;BME280;3631;42.152;24.756;2023-11-21T03:12:10;86313.00;;;-144.30;80.09
7180;BME280;3631;42.152;24.756;2023-11-21T03:14:38;86275.22;;;-144.30;79.05
7180;BME280;3631;42.152;24.756;2023-11-21T03:17:05;86295.09;;;-144.30;80.36
7180;BME280;3631;42.152;24.756;2023-11-21T03:19:32;86265.28;;;-144.30;80.87
7180;BME280;3631;42.152;24.756;2023-11-21T03:21:59;86287.16;;;-144.30;80.65
7180;BME280;3631;42.152;24.756;2023-11-21T03:24:26;86311.00;;;-144.30;80.80
7180;BME280;3631;42.152;24.756;2023-11-21T03:26:53;86311.00;;;-144.30;80.87
7180;BME280;3631;42.152;24.756;2023-11-21T03:29:20;86291.13;;;-144.30;80.16
7180;BME280;3631;42.152;24.756;2023-11-21T03:31:48;86299.06;;;-144.30;80.12
7180;BME280;3631;42.152;24.756;2023-11-21T03:34:19;86211.59;;;-144.30;80.18
7180;BME280;3631;42.152;24.756;2023-11-21T03:36:46;86311.00;;;-144.30;80.34
7180;BME280;3631;42.152;24.756;2023-11-21T03:39:13;86316.97;;;-144.30;80.01
7180;BME280;3631;42.152;24.756;2023-11-21T03:41:40;86269.25;;;-144.30;79.62
7180;BME280;3631;42.152;24.756;2023-11-21T03:44:07;86251.34;;;-144.30;79.53
7180;BME280;3631;42.152;24.756;2023-11-21T03:46:34;86283.16;;;-144.30;80.01
7180;BME280;3631;42.152;24.756;2023-11-21T03:49:03;86060.47;;;-144.30;79.57
7180;BME280;3631;42.152;24.756;2023-11-21T03:51:30;86261.28;;;-144.30;80.17
7180;BME280;3631;42.152;24.756;2023-11-21T03:53:57;86299.06;;;-144.30;79.40
7180;BME280;3631;42.152;24.756;2023-11-21T03:56:24;86269.25;;;-144.30;79.71
7180;BME280;3631;42.152;24.756;2023-11-21T03:58:50;86314.97;;;-144.30;79.66
7180;BME280;3631;42.152;24.756;2023-11-21T04:01:21;86231.47;;;-144.30;80.17
7180;BME280;3631;42.152;24.756;2023-11-21T04:03:48;86289.13;;;-144.30;80.32
7180;BME280;3631;42.152;24.756;2023-11-21T04:06:17;86287.16;;;-144.30;81.25
7180;BME280;3631;42.152;24.756;2023-11-21T04:08:45;86311.00;;;-144.30;81.23
7180;BME280;3631;42.152;24.756;2023-11-21T04:11:12;86350.78;;;-144.30;82.18
7180;BME280;3631;42.152;24.756;2023-11-21T04:13:39;86277.19;;;-144.30;82.61
7180;BME280;3631;42.152;24.756;2023-11-21T04:16:08;86320.94;;;-144.30;82.47
7180;BME280;3631;42.152;24.756;2023-11-21T04:18:36;86293.09;;;-144.30;81.45
7180;BME280;3631;42.152;24.756;2023-11-21T04:21:03;86267.25;;;-144.30;81.98
7180;BME280;3631;42.152;24.756;2023-11-21T04:23:32;86309.03;;;-144.30;82.06
7180;BME280;3631;42.152;24.756;2023-11-21T04:25:59;86293.09;;;-144.30;82.42
7180;BME280;3631;42.152;24.756;2023-11-21T04:28:27;86322.94;;;-144.30;82.66
7180;BME280;3631;42.152;24.756;2023-11-21T04:30:54;86287.16;;;-144.30;82.93
7180;BME280;3631;42.152;24.756;2023-11-21T04:33:21;86257.31;;;-144.30;83.20
7180;BME280;3631;42.152;24.756;2023-11-21T04:35:48;86311.00;;;-144.30;83.36
7180;BME280;3631;42.152;24.756;2023-11-21T04:38:15;86309.03;;;-144.30;83.04
7180;BME280;3631;42.152;24.756;2023-11-21T04:40:43;86322.94;;;-144.30;84.67
7180;BME280;3631;42.152;24.756;2023-11-21T04:43:10;86307.03;;;-144.30;85.97
7180;BME280;3631;42.152;24.756;2023-11-21T04:45:37;86346.81;;;-144.30;86.93
7180;BME280;3631;42.152;24.756;2023-11-21T04:48:06;86366.69;;;-144.30;87.94
7180;BME280;3631;42.152;24.756;2023-11-21T04:50:33;86149.94;;;-144.30;88.23
7180;BME280;3631;42.152;24.756;2023-11-21T04:53:00;86309.03;;;-144.30;88.70
7180;BME280;3631;42.152;24.756;2023-11-21T04:55:28;86350.78;;;-144.30;88.98
7180;BME280;3631;42.152;24.756;2023-11-21T04:57:57;86354.75;;;-144.30;89.37
7180;BME280;3631;42.152;24.756;2023-11-21T05:00:24;86332.88;;;-144.30;89.67
7180;BME280;3631;42.152;24.756;2023-11-21T05:02:51;86358.72;;;-144.30;89.39
7180;BME280;3631;42.152;24.756;2023-11-21T05:05:18;86287.16;;;-144.30;88.89
7180;BME280;3631;42.152;24.756;2023-11-21T05:07:45;86346.81;;;-144.30;88.13
7180;BME280;3631;42.152;24.756;2023-11-21T05:10:14;86326.91;;;-144.30;87.87
7180;BME280;3631;42.152;24.756;2023-11-21T05:12:41;86271.25;;;-144.30;87.32
7180;BME280;3631;42.152;24.756;2023-11-21T05:15:14;86623.22;;;-144.30;87.09
7180;BME280;3631;42.152;24.756;2023-11-21T05:17:41;86372.66;;;-144.30;86.78
7180;BME280;3631;42.152;24.756;2023-11-21T05:20:09;86352.75;;;-144.30;85.98
7180;BME280;3631;42.152;24.756;2023-11-21T05:22:37;86374.63;;;-144.30;87.16
7180;BME280;3631;42.152;24.756;2023-11-21T05:25:05;86720.66;;;-144.30;86.90
7180;BME280;3631;42.152;24.756;2023-11-21T05:27:33;86810.16;;;-144.30;86.83
7180;BME280;3631;42.152;24.756;2023-11-21T05:30:01;86336.84;;;-144.30;86.01
7180;BME280;3631;42.152;24.756;2023-11-21T05:32:29;86350.78;;;-144.30;86.35
7180;BME280;3631;42.152;24.756;2023-11-21T05:34:56;86338.84;;;-144.30;84.97
7180;BME280;3631;42.152;24.756;2023-11-21T05:37:24;86326.91;;;-144.30;84.35
7180;BME280;3631;42.152;24.756;2023-11-21T05:39:53;86326.91;;;-144.30;84.17
7180;BME280;3631;42.152;24.756;2023-11-21T05:42:21;86330.88;;;-144.30;83.78
7180;BME280;3631;42.152;24.756;2023-11-21T05:44:49;86332.88;;;-144.30;84.08
7180;BME280;3631;42.152;24.756;2023-11-21T05:47:16;86283.16;;;-144.30;84.44
7180;BME280;3631;42.152;24.756;2023-11-21T05:49:44;86328.91;;;-144.30;83.39
7180;BME280;3631;42.152;24.756;2023-11-21T05:52:15;86354.75;;;-144.30;84.04
7180;BME280;3631;42.152;24.756;2023-11-21T05:54:42;86332.88;;;-144.30;84.47
7180;BME280;3631;42.152;24.756;2023-11-21T05:57:08;86334.88;;;-144.30;83.81
7180;BME280;3631;42.152;24.756;2023-11-21T05:59:35;86102.22;;;-144.30;82.86
7180;BME280;3631;42.152;24.756;2023-11-21T06:02:02;86338.84;;;-144.30;83.63
7180;BME280;3631;42.152;24.756;2023-11-21T06:04:30;86295.09;;;-144.30;83.24
7180;BME280;3631;42.152;24.756;2023-11-21T06:06:58;86352.75;;;-144.30;82.35
7180;BME280;3631;42.152;24.756;2023-11-21T06:09:26;86287.16;;;-144.30;81.71
7180;BME280;3631;42.152;24.756;2023-11-21T06:11:53;86295.09;;;-144.30;80.48
7180;BME280;3631;42.152;24.756;2023-11-21T06:14:20;86255.34;;;-144.30;80.02
7180;BME280;3631;42.152;24.756;2023-11-21T06:16:47;86275.22;;;-144.30;79.61
7180;BME280;3631;42.152;24.756;2023-11-21T06:19:17;86263.28;;;-144.30;79.47
7180;BME280;3631;42.152;24.756;2023-11-21T06:21:45;86020.69;;;-144.30;78.68
7180;BME280;3631;42.152;24.756;2023-11-21T06:24:14;86239.44;;;-144.30;78.16
7180;BME280;3631;42.152;24.756;2023-11-21T06:26:41;86285.16;;;-144.30;77.71
7180;BME280;3631;42.152;24.756;2023-11-21T06:29:09;86257.31;;;-144.30;77.68
7180;BME280;3631;42.152;24.756;2023-11-21T06:31:36;86209.59;;;-144.30;77.06
7180;BME280;3631;42.152;24.756;2023-11-21T06:34:03;86223.50;;;-144.30;76.78
7180;BME280;3631;42.152;24.756;2023-11-21T06:36:30;86247.38;;;-144.30;76.58
7180;BME280;3631;42.152;24.756;2023-11-21T06:38:57;86207.59;;;-144.30;75.32
7180;BME280;3631;42.152;24.756;2023-11-21T06:41:25;86668.94;;;-144.30;74.70
7180;BME280;3631;42.152;24.756;2023-11-21T06:43:52;86100.25;;;-144.30;74.44
7180;BME280;3631;42.152;24.756;2023-11-21T06:46:20;86219.53;;;-144.30;74.60
7180;BME280;3631;42.152;24.756;2023-11-21T06:48:47;86116.16;;;-144.30;74.63
7180;BME280;3631;42.152;24.756;2023-11-21T06:51:15;86203.63;;;-144.30;73.76
7180;BME280;3631;42.152;24.756;2023-11-21T06:53:42;86197.66;;;-144.30;73.52
7180;BME280;3631;42.152;24.756;2023-11-21T06:56:15;86143.97;;;-144.30;73.61
7180;BME280;3631;42.152;24.756;2023-11-21T06:58:45;86159.88;;;-144.30;73.00
7180;BME280;3631;42.152;24.756;2023-11-21T07:01:12;86187.72;;;-144.30;72.61
7180;BME280;3631;42.152;24.756;2023-11-21T07:03:40;86227.50;;;-144.30;72.15
7180;BME280;3631;42.152;24.756;2023-11-21T07:06:08;86201.66;;;-144.30;71.67
7180;BME280;3631;42.152;24.756;2023-11-21T07:08:35;86175.78;;;-144.30;72.01
7180;BME280;3631;42.152;24.756;2023-11-21T07:11:02;86213.56;;;-144.30;72.34
7180;BME280;3631;42.152;24.756;2023-11-21T07:13:29;86177.78;;;-144.30;72.39
7180;BME280;3631;42.152;24.756;2023-11-21T07:15:57;86177.78;;;-144.30;71.98
7180;BME280;3631;42.152;24.756;2023-11-21T07:18:25;86130.06;;;-144.30;71.42
7180;BME280;3631;42.152;24.756;2023-11-21T07:20:52;86167.84;;;-144.30;71.27
7180;BME280;3631;42.152;24.756;2023-11-21T07:23:19;85923.28;;;-144.30;70.98
7180;BME280;3631;42.152;24.756;2023-11-21T07:25:48;86205.63;;;-144.30;70.75
7180;BME280;3631;42.152;24.756;2023-11-21T07:28:15;86185.72;;;-144.30;70.61
7180;BME280;3631;42.152;24.756;2023-11-21T07:30:42;86177.78;;;-144.30;70.17
7180;BME280;3631;42.152;24.756;2023-11-21T07:33:10;86179.78;;;-144.30;70.07
7180;BME280;3631;42.152;24.756;2023-11-21T07:35:37;86167.84;;;-144.30;70.43
7180;BME280;3631;42.152;24.756;2023-11-21T07:38:04;86072.41;;;-144.30;70.92
7180;BME280;3631;42.152;24.756;2023-11-21T07:40:31;86223.50;;;-144.30;72.03
7180;BME280;3631;42.152;24.756;2023-11-21T07:42:58;86806.16;;;-144.30;72.51
7180;BME280;3631;42.152;24.756;2023-11-21T07:45:25;86163.88;;;-144.30;72.85
7180;BME280;3631;42.152;24.756;2023-11-21T07:47:53;86201.66;;;-144.30;72.96
7180;BME280;3631;42.152;24.756;2023-11-21T07:50:22;86100.25;;;-144.30;73.07
7180;BME280;3631;42.152;24.756;2023-11-21T07:52:49;86145.97;;;-144.30;72.98
7180;BME280;3631;42.152;24.756;2023-11-21T07:55:16;86211.59;;;-144.30;73.08
7180;BME280;3631;42.152;24.756;2023-11-21T07:57:43;86149.94;;;-144.30;72.20
7180;BME280;3631;42.152;24.756;2023-11-21T08:00:11;86209.59;;;-144.30;71.98
7180;BME280;3631;42.152;24.756;2023-11-21T08:02:41;86173.81;;;-144.30;70.91
7180;BME280;3631;42.152;24.756;2023-11-21T08:05:11;86159.88;;;-144.30;69.94
7180;BME280;3631;42.152;24.756;2023-11-21T08:07:39;86169.81;;;-144.30;70.04
7180;BME280;3631;42.152;24.756;2023-11-21T08:10:08;86159.88;;;-144.30;70.07
7180;BME280;3631;42.152;24.756;2023-11-21T08:12:35;86132.06;;;-144.30;69.60
7180;BME280;3631;42.152;24.756;2023-11-21T08:15:05;86044.56;;;-144.30;69.42
7180;BME280;3631;42.152;24.756;2023-11-21T08:17:33;86052.50;;;-144.30;68.68
7180;BME280;3631;42.152;24.756;2023-11-21T08:20:01;86104.22;;;-144.30;67.94
7180;BME280;3631;42.152;24.756;2023-11-21T08:22:29;86086.31;;;-144.30;67.87
7180;BME280;3631;42.152;24.756;2023-11-21T08:24:57;86008.78;;;-144.30;67.26
7180;BME280;3631;42.152;24.756;2023-11-21T08:27:24;86124.09;;;-144.30;67.01
7180;BME280;3631;42.152;24.756;2023-11-21T08:29:51;86066.44;;;-144.30;67.03
7180;BME280;3631;42.152;24.756;2023-11-21T08:32:18;86066.44;;;-144.30;66.59
7180;BME280;3631;42.152;24.756;2023-11-21T08:34:45;86082.34;;;-144.30;66.05
7180;BME280;3631;42.152;24.756;2023-11-21T08:37:16;86056.50;;;-144.30;66.00
7180;BME280;3631;42.152;24.756;2023-11-21T08:39:43;86068.41;;;-144.30;65.32
7180;BME280;3631;42.152;24.756;2023-11-21T08:42:15;86072.41;;;-144.30;65.23
7180;BME280;3631;42.152;24.756;2023-11-21T08:44:43;86040.59;;;-144.30;64.82
7180;BME280;3631;42.152;24.756;2023-11-21T08:47:10;86030.66;;;-144.30;64.62
7180;BME280;3631;42.152;24.756;2023-11-21T08:49:38;86050.53;;;-144.30;64.39
7180;BME280;3631;42.152;24.756;2023-11-21T08:52:05;86008.78;;;-144.30;64.22
7180;BME280;3631;42.152;24.756;2023-11-21T08:54:32;86299.06;;;-144.30;63.27
7180;BME280;3631;42.152;24.756;2023-11-21T08:57:00;85980.94;;;-144.30;62.61
7180;BME280;3631;42.152;24.756;2023-11-21T08:59:29;85967.03;;;-144.30;61.94
7180;BME280;3631;42.152;24.756;2023-11-21T09:01:56;86036.59;;;-144.30;62.59
7180;BME280;3631;42.152;24.756;2023-11-21T09:04:23;85925.25;;;-144.30;62.51
7180;BME280;3631;42.152;24.756;2023-11-21T09:06:50;86010.75;;;-144.30;62.44
7180;BME280;3631;42.152;24.756;2023-11-21T09:09:18;85976.97;;;-144.30;62.67
7180;BME280;3631;42.152;24.756;2023-11-21T09:11:45;86026.66;;;-144.30;62.83
7180;BME280;3631;42.152;24.756;2023-11-21T09:14:14;85974.97;;;-144.30;62.63
7180;BME280;3631;42.152;24.756;2023-11-21T09:16:44;85949.13;;;-144.30;62.29
7180;BME280;3631;42.152;24.756;2023-11-21T09:19:12;85943.16;;;-144.30;62.01
7180;BME280;3631;42.152;24.756;2023-11-21T09:21:39;85901.41;;;-144.30;61.60
7180;BME280;3631;42.152;24.756;2023-11-21T09:24:07;85925.25;;;-144.30;61.13
7180;BME280;3631;42.152;24.756;2023-11-21T09:26:35;85879.53;;;-144.30;60.70
7180;BME280;3631;42.152;24.756;2023-11-21T09:29:02;85951.13;;;-144.30;60.50
7180;BME280;3631;42.152;24.756;2023-11-21T09:31:29;85845.75;;;-144.30;59.78
7180;BME280;3631;42.152;24.756;2023-11-21T09:33:58;85877.53;;;-144.30;59.03
7180;BME280;3631;42.152;24.756;2023-11-21T09:36:25;85929.25;;;-144.30;58.50
7180;BME280;3631;42.152;24.756;2023-11-21T09:38:53;85835.78;;;-144.30;58.12
7180;BME280;3631;42.152;24.756;2023-11-21T09:41:26;85885.50;;;-144.30;57.94
7180;BME280;3631;42.152;24.756;2023-11-21T09:44:02;85813.94;;;-144.30;57.77
7180;BME280;3631;42.152;24.756;2023-11-21T09:46:41;85821.88;;;-144.30;57.10
7180;BME280;3631;42.152;24.756;2023-11-21T09:49:10;85756.28;;;-144.30;56.76
7180;BME280;3631;42.152;24.756;2023-11-21T09:51:39;85466.00;;;-144.30;56.60
7180;BME280;3631;42.152;24.756;2023-11-21T09:54:10;85788.09;;;-144.30;56.64
7180;BME280;3631;42.152;24.756;2023-11-21T09:56:38;85794.03;;;-144.30;55.94
7180;BME280;3631;42.152;24.756;2023-11-21T09:59:06;85722.47;;;-144.30;55.63
7180;BME280;3631;42.152;24.756;2023-11-21T10:01:36;85684.69;;;-144.30;55.72
7180;BME280;3631;42.152;24.756;2023-11-21T10:04:06;85770.19;;;-144.30;55.79
7180;BME280;3631;42.152;24.756;2023-11-21T10:06:39;85766.22;;;-144.30;55.26
7180;BME280;3631;42.152;24.756;2023-11-21T10:09:08;85778.13;;;-144.30;55.29
7180;BME280;3631;42.152;24.756;2023-11-21T10:11:40;85744.34;;;-144.30;55.47
7180;BME280;3631;42.152;24.756;2023-11-21T10:14:08;85811.94;;;-144.30;55.42
7180;BME280;3631;42.152;24.756;2023-11-21T10:16:38;85792.06;;;-144.30;55.63
7180;BME280;3631;42.152;24.756;2023-11-21T10:19:06;85792.06;;;-144.30;55.85
7180;BME280;3631;42.152;24.756;2023-11-21T10:21:39;85710.53;;;-144.30;56.25
7180;BME280;3631;42.152;24.756;2023-11-21T10:24:06;85782.13;;;-144.30;55.97
7180;BME280;3631;42.152;24.756;2023-11-21T10:26:34;85794.03;;;-144.30;56.10
7180;BME280;3631;42.152;24.756;2023-11-21T10:29:02;85792.06;;;-144.30;55.85
7180;BME280;3631;42.152;24.756;2023-11-21T10:31:30;85786.09;;;-144.30;55.98
7180;BME280;3631;42.152;24.756;2023-11-21T10:34:14;85754.28;;;-144.30;55.01
7180;BME280;3631;42.152;24.756;2023-11-21T10:36:42;85722.47;;;-144.30;55.22
7180;BME280;3631;42.152;24.756;2023-11-21T10:39:09;85658.84;;;-144.30;54.91
7180;BME280;3631;42.152;24.756;2023-11-21T10:41:43;85754.28;;;-144.30;54.73
7180;BME280;3631;42.152;24.756;2023-11-21T10:44:10;85724.47;;;-144.30;54.27
7180;BME280;3631;42.152;24.756;2023-11-21T10:46:40;85692.66;;;-144.30;53.98
7180;BME280;3631;42.152;24.756;2023-11-21T10:49:10;85714.53;;;-144.30;53.92
7180;BME280;3631;42.152;24.756;2023-11-21T10:51:44;85692.66;;;-144.30;53.38
7180;BME280;3631;42.152;24.756;2023-11-21T10:54:11;85736.38;;;-144.30;52.74
7180;BME280;3631;42.152;24.756;2023-11-21T10:56:39;85686.69;;;-144.30;51.96
7180;BME280;3631;42.152;24.756;2023-11-21T10:59:10;85636.97;;;-144.30;52.11
7180;BME280;3631;42.152;24.756;2023-11-21T11:01:40;85519.69;;;-144.30;52.10
7180;BME280;3631;42.152;24.756;2023-11-21T11:04:09;85694.63;;;-144.30;51.62
7180;BME280;3631;42.152;24.756;2023-11-21T11:06:41;85662.81;;;-144.30;51.71
7180;BME280;3631;42.152;24.756;2023-11-21T11:09:10;85654.88;;;-144.30;51.84
7180;BME280;3631;42.152;24.756;2023-11-21T11:11:40;85635.00;;;-144.30;51.98
7180;BME280;3631;42.152;24.756;2023-11-21T11:14:11;85631.03;;;-144.30;52.24
7180;BME280;3631;42.152;24.756;2023-11-21T11:16:39;85690.66;;;-144.30;52.39
7180;BME280;3631;42.152;24.756;2023-11-21T11:19:09;85710.53;;;-144.30;52.30
7180;BME280;3631;42.152;24.756;2023-11-21T11:21:45;85636.97;;;-144.30;52.33
7180;BME280;3631;42.152;24.756;2023-11-21T11:27:15;85646.91;;;-144.30;51.86
7180;BME280;3631;42.152;24.756;2023-11-21T11:29:54;85650.91;;;-144.30;51.77
7180;BME280;3631;42.152;24.756;2023-11-21T11:32:36;85623.06;;;-144.30;51.88
7180;BME280;3631;42.152;24.756;2023-11-21T11:35:11;85631.03;;;-144.30;51.81
7180;BME280;3631;42.152;24.756;2023-11-21T11:37:43;85638.97;;;-144.30;51.82
7180;BME280;3631;42.152;24.756;2023-11-21T11:40:12;85635.00;;;-144.30;51.69
7180;BME280;3631;42.152;24.756;2023-11-21T11:42:55;85664.81;;;-144.30;52.46
7180;BME280;3631;42.152;24.756;2023-11-21T11:45:25;85712.53;;;-144.30;52.88
7180;BME280;3631;42.152;24.756;2023-11-21T11:47:56;85680.72;;;-144.30;53.50
7180;BME280;3631;42.152;24.756;2023-11-21T11:50:23;85746.31;;;-144.30;53.57
7180;BME280;3631;42.152;24.756;2023-11-21T11:52:52;85642.94;;;-144.30;53.85
7180;BME280;3631;42.152;24.756;2023-11-21T11:55:23;85724.47;;;-144.30;54.32
7180;BME280;3631;42.152;24.756;2023-11-21T11:57:52;85712.53;;;-144.30;53.87
7180;BME280;3631;42.152;24.756;2023-11-21T12:00:22;85720.47;;;-144.30;54.08
7180;BME280;3631;42.152;24.756;2023-11-21T12:02:51;85742.34;;;-144.30;54.28
7180;BME280;3631;42.152;24.756;2023-11-21T12:05:19;85736.38;;;-144.30;54.45
7180;BME280;3631;42.152;24.756;2023-11-21T12:07:48;85722.47;;;-144.30;54.17
7180;BME280;3631;42.152;24.756;2023-11-21T12:10:18;85646.91;;;-144.30;53.86
7180;BME280;3631;42.152;24.756;2023-11-21T12:12:48;85646.91;;;-144.30;54.07
7180;BME280;3631;42.152;24.756;2023-11-21T12:15:16;85682.72;;;-144.30;54.79
7180;BME280;3631;42.152;24.756;2023-11-21T12:17:43;85718.50;;;-144.30;54.71
7180;BME280;3631;42.152;24.756;2023-11-21T12:20:11;85694.63;;;-144.30;55.05
7180;BME280;3631;42.152;24.756;2023-11-21T12:22:43;85752.28;;;-144.30;54.89
7180;BME280;3631;42.152;24.756;2023-11-21T12:25:13;85742.34;;;-144.30;55.15
7180;BME280;3631;42.152;24.756;2023-11-21T12:27:42;85710.53;;;-144.30;54.86
7180;BME280;3631;42.152;24.756;2023-11-21T12:30:13;85728.44;;;-144.30;55.01
7180;BME280;3631;42.152;24.756;2023-11-21T12:32:42;85706.56;;;-144.30;55.03
7180;BME280;3631;42.152;24.756;2023-11-21T12:35:11;85718.50;;;-144.30;55.21
7180;BME280;3631;42.152;24.756;2023-11-21T12:37:40;85742.34;;;-144.30;55.01
7180;BME280;3631;42.152;24.756;2023-11-21T12:40:10;85734.41;;;-144.30;54.88
7180;BME280;3631;42.152;24.756;2023-11-21T12:42:39;85599.22;;;-144.30;54.64
7180;BME280;3631;42.152;24.756;2023-11-21T12:45:20;86076.38;;;-144.30;54.71
7180;BME280;3631;42.152;24.756;2023-11-21T12:47:48;85712.53;;;-144.30;54.61
7180;BME280;3631;42.152;24.756;2023-11-21T12:50:19;85668.78;;;-144.30;54.50
7180;BME280;3631;42.152;24.756;2023-11-21T12:52:49;85720.47;;;-144.30;54.98
7180;BME280;3631;42.152;24.756;2023-11-21T12:55:18;85621.06;;;-144.30;54.90
7180;BME280;3631;42.152;24.756;2023-11-21T12:57:48;85730.41;;;-144.30;55.26